sensor_id;sensor_type;location;lat;lon;timestamp;P1;durP1;ratioP1;P2;durP2;ratioP2
11614;SDS011;5863;52.832;4.758;2022-11-20T00:00:04;10.03;;;7.73;;
11614;SDS011;5863;52.832;4.758;2022-11-20T00:02:31;10.30;;;7.70;;
11614;SDS011;5863;52.832;4.758;2022-11-20T00:04:58;10.67;;;7.73;;
11614;SDS011;5863;52.832;4.758;2022-11-20T00:07:25;11.77;;;8.00;;
11614;SDS011;5863;52.832;4.758;2022-11-20T00:09:51;10.97;;;7.43;;
11614;SDS011;5863;52.832;4.758;2022-11-20T00:12:20;11.80;;;7.50;;
11614;SDS011;5863;52.832;4.758;2022-11-20T00:14:47;11.67;;;7.83;;
11614;SDS011;5863;52.832;4.758;2022-11-20T00:17:14;10.53;;;7.87;;
11614;SDS011;5863;52.832;4.758;2022-11-20T00:19:40;11.43;;;7.83;;
11614;SDS011;5863;52.832;4.758;2022-11-20T00:22:07;10.00;;;7.60;;
11614;SDS011;5863;52.832;4.758;2022-11-20T00:24:33;11.10;;;7.80;;
11614;SDS011;5863;52.832;4.758;2022-11-20T00:27:00;10.57;;;8.10;;
11614;SDS011;5863;52.832;4.758;2022-11-20T00:29:28;11.13;;;8.10;;
11614;SDS011;5863;52.832;4.758;2022-11-20T00:31:55;11.67;;;8.20;;
11614;SDS011;5863;52.832;4.758;2022-11-20T00:34:21;11.67;;;7.73;;
11614;SDS011;5863;52.832;4.758;2022-11-20T00:36:48;12.07;;;8.13;;
11614;SDS011;5863;52.832;4.758;2022-11-20T00:39:15;11.63;;;7.60;;
11614;SDS011;5863;52.832;4.758;2022-11-20T00:41:41;11.10;;;8.17;;
11614;SDS011;5863;52.832;4.758;2022-11-20T00:44:08;10.60;;;7.97;;
11614;SDS011;5863;52.832;4.758;2022-11-20T00:46:36;10.93;;;7.53;;
11614;SDS011;5863;52.832;4.758;2022-11-20T00:49:03;11.50;;;7.40;;
11614;SDS011;5863;52.832;4.758;2022-11-20T00:51:29;10.40;;;7.57;;
11614;SDS011;5863;52.832;4.758;2022-11-20T00:53:56;12.27;;;8.37;;
11614;SDS011;5863;52.832;4.758;2022-11-20T00:56:24;11.33;;;7.93;;
11614;SDS011;5863;52.832;4.758;2022-11-20T00:58:52;13.23;;;7.93;;
11614;SDS011;5863;52.832;4.758;2022-11-20T01:01:19;12.70;;;8.30;;
11614;SDS011;5863;52.832;4.758;2022-11-20T01:03:50;11.57;;;8.13;;
11614;SDS011;5863;52.832;4.758;2022-11-20T01:06:19;11.40;;;7.73;;
11614;SDS011;5863;52.832;4.758;2022-11-20T01:08:47;12.63;;;8.03;;
11614;SDS011;5863;52.832;4.758;2022-11-20T01:11:15;11.33;;;7.47;;
11614;SDS011;5863;52.832;4.758;2022-11-20T01:13:45;13.30;;;8.13;;
11614;SDS011;5863;52.832;4.758;2022-11-20T01:16:14;11.50;;;8.07;;
11614;SDS011;5863;52.832;4.758;2022-11-20T01:18:43;11.87;;;8.23;;
11614;SDS011;5863;52.832;4.758;2022-11-20T01:21:12;10.93;;;8.57;;
11614;SDS011;5863;52.832;4.758;2022-11-20T01:23:41;11.77;;;8.30;;
11614;SDS011;5863;52.832;4.758;2022-11-20T01:26:09;12.47;;;8.77;;
11614;SDS011;5863;52.832;4.758;2022-11-20T01:28:38;12.53;;;8.20;;
11614;SDS011;5863;52.832;4.758;2022-11-20T01:31:12;12.83;;;8.33;;
11614;SDS011;5863;52.832;4.758;2022-11-20T01:33:40;11.63;;;7.50;;
11614;SDS011;5863;52.832;4.758;2022-11-20T01:36:08;11.37;;;7.97;;
11614;SDS011;5863;52.832;4.758;2022-11-20T01:38:36;11.70;;;8.10;;
11614;SDS011;5863;52.832;4.758;2022-11-20T01:41:04;14.13;;;8.93;;
11614;SDS011;5863;52.832;4.758;2022-11-20T01:43:31;10.67;;;7.77;;
11614;SDS011;5863;52.832;4.758;2022-11-20T01:46:12;12.67;;;8.93;;
11614;SDS011;5863;52.832;4.758;2022-11-20T01:48:42;11.90;;;8.60;;
11614;SDS011;5863;52.832;4.758;2022-11-20T01:51:15;10.37;;;7.80;;
11614;SDS011;5863;52.832;4.758;2022-11-20T01:53:49;12.70;;;8.40;;
11614;SDS011;5863;52.832;4.758;2022-11-20T01:56:17;14.43;;;9.03;;
11614;SDS011;5863;52.832;4.758;2022-11-20T01:58:44;12.77;;;8.17;;
11614;SDS011;5863;52.832;4.758;2022-11-20T02:01:16;11.77;;;8.07;;
11614;SDS011;5863;52.832;4.758;2022-11-20T02:03:43;11.67;;;7.97;;
11614;SDS011;5863;52.832;4.758;2022-11-20T02:06:12;14.40;;;8.47;;
11614;SDS011;5863;52.832;4.758;2022-11-20T02:08:43;13.17;;;8.40;;
11614;SDS011;5863;52.832;4.758;2022-11-20T02:11:11;11.33;;;8.70;;
11614;SDS011;5863;52.832;4.758;2022-11-20T02:13:39;12.37;;;8.13;;
11614;SDS011;5863;52.832;4.758;2022-11-20T02:16:10;10.43;;;7.90;;
11614;SDS011;5863;52.832;4.758;2022-11-20T02:18:39;12.67;;;8.40;;
11614;SDS011;5863;52.832;4.758;2022-11-20T02:21:08;11.10;;;7.47;;
11614;SDS011;5863;52.832;4.758;2022-11-20T02:26:26;9.93;;;7.47;;
11614;SDS011;5863;52.832;4.758;2022-11-20T02:28:54;13.40;;;8.10;;
11614;SDS011;5863;52.832;4.758;2022-11-20T02:31:22;11.43;;;8.20;;
11614;SDS011;5863;52.832;4.758;2022-11-20T02:33:53;11.07;;;7.73;;
11614;SDS011;5863;52.832;4.758;2022-11-20T02:36:21;13.70;;;8.33;;
11614;SDS011;5863;52.832;4.758;2022-11-20T02:38:47;13.43;;;8.60;;
11614;SDS011;5863;52.832;4.758;2022-11-20T02:41:17;11.77;;;8.57;;
11614;SDS011;5863;52.832;4.758;2022-11-20T02:43:43;14.27;;;8.10;;
11614;SDS011;5863;52.832;4.758;2022-11-20T02:46:10;11.70;;;8.30;;
11614;SDS011;5863;52.832;4.758;2022-11-20T02:48:37;14.07;;;8.63;;
11614;SDS011;5863;52.832;4.758;2022-11-20T02:51:03;11.33;;;8.27;;
11614;SDS011;5863;52.832;4.758;2022-11-20T02:53:30;13.30;;;8.50;;
11614;SDS011;5863;52.832;4.758;2022-11-20T02:55:57;12.27;;;8.63;;
11614;SDS011;5863;52.832;4.758;2022-11-20T02:58:25;12.40;;;8.60;;
11614;SDS011;5863;52.832;4.758;2022-11-20T03:00:52;12.87;;;8.20;;
11614;SDS011;5863;52.832;4.758;2022-11-20T03:03:19;12.90;;;8.47;;
11614;SDS011;5863;52.832;4.758;2022-11-20T03:05:45;13.17;;;8.60;;
11614;SDS011;5863;52.832;4.758;2022-11-20T03:08:12;12.20;;;8.30;;
11614;SDS011;5863;52.832;4.758;2022-11-20T03:10:39;12.07;;;8.10;;
11614;SDS011;5863;52.832;4.758;2022-11-20T03:13:05;14.97;;;8.77;;
11614;SDS011;5863;52.832;4.758;2022-11-20T03:15:33;12.13;;;8.37;;
11614;SDS011;5863;52.832;4.758;2022-11-20T03:18:01;10.13;;;8.20;;
11614;SDS011;5863;52.832;4.758;2022-11-20T03:20:28;13.43;;;7.90;;
11614;SDS011;5863;52.832;4.758;2022-11-20T03:22:55;10.13;;;7.13;;
11614;SDS011;5863;52.832;4.758;2022-11-20T03:25:22;11.77;;;8.33;;
11614;SDS011;5863;52.832;4.758;2022-11-20T03:27:49;11.13;;;7.70;;
11614;SDS011;5863;52.832;4.758;2022-11-20T03:30:15;11.10;;;7.77;;
11614;SDS011;5863;52.832;4.758;2022-11-20T03:32:43;10.77;;;7.67;;
11614;SDS011;5863;52.832;4.758;2022-11-20T03:35:10;11.27;;;7.93;;
11614;SDS011;5863;52.832;4.758;2022-11-20T03:37:37;11.70;;;8.37;;
11614;SDS011;5863;52.832;4.758;2022-11-20T03:40:04;10.70;;;7.93;;
11614;SDS011;5863;52.832;4.758;2022-11-20T03:42:32;11.10;;;8.17;;
11614;SDS011;5863;52.832;4.758;2022-11-20T03:45:11;12.20;;;8.10;;
11614;SDS011;5863;52.832;4.758;2022-11-20T03:47:38;13.20;;;8.00;;
11614;SDS011;5863;52.832;4.758;2022-11-20T03:50:07;12.57;;;8.20;;
11614;SDS011;5863;52.832;4.758;2022-11-20T03:52:34;10.97;;;7.60;;
11614;SDS011;5863;52.832;4.758;2022-11-20T03:55:01;10.33;;;7.77;;
11614;SDS011;5863;52.832;4.758;2022-11-20T03:57:28;11.30;;;7.77;;
11614;SDS011;5863;52.832;4.758;2022-11-20T03:59:55;10.53;;;7.63;;
11614;SDS011;5863;52.832;4.758;2022-11-20T04:02:23;10.93;;;7.83;;
11614;SDS011;5863;52.832;4.758;2022-11-20T04:04:50;9.87;;;7.40;;
11614;SDS011;5863;52.832;4.758;2022-11-20T04:07:18;12.43;;;8.40;;
11614;SDS011;5863;52.832;4.758;2022-11-20T04:09:44;12.10;;;8.53;;
11614;SDS011;5863;52.832;4.758;2022-11-20T04:12:11;11.00;;;7.70;;
11614;SDS011;5863;52.832;4.758;2022-11-20T04:14:37;10.30;;;7.40;;
11614;SDS011;5863;52.832;4.758;2022-11-20T04:17:04;12.90;;;7.90;;
11614;SDS011;5863;52.832;4.758;2022-11-20T04:19:31;10.40;;;7.90;;
11614;SDS011;5863;52.832;4.758;2022-11-20T04:21:58;9.53;;;7.40;;
11614;SDS011;5863;52.832;4.758;2022-11-20T04:24:26;10.90;;;7.47;;
11614;SDS011;5863;52.832;4.758;2022-11-20T04:26:52;10.13;;;7.57;;
11614;SDS011;5863;52.832;4.758;2022-11-20T04:29:19;11.33;;;8.07;;
11614;SDS011;5863;52.832;4.758;2022-11-20T04:31:46;11.30;;;8.17;;
11614;SDS011;5863;52.832;4.758;2022-11-20T04:34:13;12.20;;;8.03;;
11614;SDS011;5863;52.832;4.758;2022-11-20T04:36:39;11.30;;;7.97;;
11614;SDS011;5863;52.832;4.758;2022-11-20T04:39:11;10.20;;;8.07;;
11614;SDS011;5863;52.832;4.758;2022-11-20T04:41:41;12.13;;;8.27;;
11614;SDS011;5863;52.832;4.758;2022-11-20T04:44:08;12.83;;;8.23;;
11614;SDS011;5863;52.832;4.758;2022-11-20T04:46:36;11.10;;;7.97;;
11614;SDS011;5863;52.832;4.758;2022-11-20T04:49:03;11.37;;;7.60;;
11614;SDS011;5863;52.832;4.758;2022-11-20T04:51:31;11.03;;;7.77;;
11614;SDS011;5863;52.832;4.758;2022-11-20T04:53:58;11.47;;;7.90;;
11614;SDS011;5863;52.832;4.758;2022-11-20T04:56:25;11.50;;;8.03;;
11614;SDS011;5863;52.832;4.758;2022-11-20T04:58:53;11.83;;;8.00;;
11614;SDS011;5863;52.832;4.758;2022-11-20T05:01:21;11.93;;;8.30;;
11614;SDS011;5863;52.832;4.758;2022-11-20T05:03:50;10.87;;;8.13;;
11614;SDS011;5863;52.832;4.758;2022-11-20T05:06:17;13.20;;;8.37;;
11614;SDS011;5863;52.832;4.758;2022-11-20T05:08:45;11.07;;;8.33;;
11614;SDS011;5863;52.832;4.758;2022-11-20T05:11:12;10.77;;;7.83;;
11614;SDS011;5863;52.832;4.758;2022-11-20T05:13:41;11.90;;;8.37;;
11614;SDS011;5863;52.832;4.758;2022-11-20T05:16:09;11.27;;;8.17;;
11614;SDS011;5863;52.832;4.758;2022-11-20T05:18:37;12.57;;;8.10;;
11614;SDS011;5863;52.832;4.758;2022-11-20T05:21:06;11.60;;;7.93;;
11614;SDS011;5863;52.832;4.758;2022-11-20T05:23:34;11.00;;;8.30;;
11614;SDS011;5863;52.832;4.758;2022-11-20T05:26:01;10.57;;;8.10;;
11614;SDS011;5863;52.832;4.758;2022-11-20T05:28:29;12.60;;;8.97;;
11614;SDS011;5863;52.832;4.758;2022-11-20T05:31:03;11.77;;;8.40;;
11614;SDS011;5863;52.832;4.758;2022-11-20T05:33:34;11.47;;;8.17;;
11614;SDS011;5863;52.832;4.758;2022-11-20T05:36:02;12.33;;;8.17;;
11614;SDS011;5863;52.832;4.758;2022-11-20T05:38:29;12.63;;;8.17;;
11614;SDS011;5863;52.832;4.758;2022-11-20T05:41:02;11.93;;;7.73;;
11614;SDS011;5863;52.832;4.758;2022-11-20T05:43:31;10.20;;;7.63;;
11614;SDS011;5863;52.832;4.758;2022-11-20T05:45:58;12.33;;;8.83;;
11614;SDS011;5863;52.832;4.758;2022-11-20T05:48:24;10.97;;;7.77;;
11614;SDS011;5863;52.832;4.758;2022-11-20T05:50:52;12.23;;;7.53;;
11614;SDS011;5863;52.832;4.758;2022-11-20T05:53:19;11.77;;;8.10;;
11614;SDS011;5863;52.832;4.758;2022-11-20T05:55:46;9.93;;;7.53;;
11614;SDS011;5863;52.832;4.758;2022-11-20T05:58:12;10.70;;;8.10;;
11614;SDS011;5863;52.832;4.758;2022-11-20T06:00:39;10.10;;;7.73;;
11614;SDS011;5863;52.832;4.758;2022-11-20T06:03:06;11.13;;;7.80;;
11614;SDS011;5863;52.832;4.758;2022-11-20T06:05:33;12.97;;;7.67;;
11614;SDS011;5863;52.832;4.758;2022-11-20T06:08:02;11.67;;;7.37;;
11614;SDS011;5863;52.832;4.758;2022-11-20T06:10:28;10.77;;;7.53;;
11614;SDS011;5863;52.832;4.758;2022-11-20T06:12:56;10.77;;;7.40;;
11614;SDS011;5863;52.832;4.758;2022-11-20T06:15:23;12.77;;;7.87;;
11614;SDS011;5863;52.832;4.758;2022-11-20T06:17:51;11.87;;;8.73;;
11614;SDS011;5863;52.832;4.758;2022-11-20T06:20:18;10.57;;;7.67;;
11614;SDS011;5863;52.832;4.758;2022-11-20T06:22:44;10.60;;;8.07;;
11614;SDS011;5863;52.832;4.758;2022-11-20T06:25:12;12.20;;;8.40;;
11614;SDS011;5863;52.832;4.758;2022-11-20T06:27:39;13.60;;;8.30;;
11614;SDS011;5863;52.832;4.758;2022-11-20T06:30:07;11.13;;;8.27;;
11614;SDS011;5863;52.832;4.758;2022-11-20T06:32:34;13.47;;;8.40;;
11614;SDS011;5863;52.832;4.758;2022-11-20T06:35:01;13.00;;;8.13;;
11614;SDS011;5863;52.832;4.758;2022-11-20T06:37:28;11.17;;;7.80;;
11614;SDS011;5863;52.832;4.758;2022-11-20T06:39:54;17.40;;;8.10;;
11614;SDS011;5863;52.832;4.758;2022-11-20T06:42:22;12.33;;;9.00;;
11614;SDS011;5863;52.832;4.758;2022-11-20T06:44:49;11.53;;;8.30;;
11614;SDS011;5863;52.832;4.758;2022-11-20T06:47:15;12.70;;;7.97;;
11614;SDS011;5863;52.832;4.758;2022-11-20T06:49:44;12.47;;;8.57;;
11614;SDS011;5863;52.832;4.758;2022-11-20T06:52:11;11.33;;;7.90;;
11614;SDS011;5863;52.832;4.758;2022-11-20T06:54:39;12.43;;;7.90;;
11614;SDS011;5863;52.832;4.758;2022-11-20T06:57:05;11.57;;;8.40;;
11614;SDS011;5863;52.832;4.758;2022-11-20T06:59:33;12.47;;;8.10;;
11614;SDS011;5863;52.832;4.758;2022-11-20T07:02:00;11.23;;;7.63;;
11614;SDS011;5863;52.832;4.758;2022-11-20T07:04:27;13.23;;;8.67;;
11614;SDS011;5863;52.832;4.758;2022-11-20T07:06:54;13.07;;;8.33;;
11614;SDS011;5863;52.832;4.758;2022-11-20T07:09:20;10.77;;;7.97;;
11614;SDS011;5863;52.832;4.758;2022-11-20T07:11:47;11.27;;;8.10;;
11614;SDS011;5863;52.832;4.758;2022-11-20T07:14:14;11.53;;;8.33;;
11614;SDS011;5863;52.832;4.758;2022-11-20T07:16:42;11.50;;;8.77;;
11614;SDS011;5863;52.832;4.758;2022-11-20T07:19:09;13.73;;;8.67;;
11614;SDS011;5863;52.832;4.758;2022-11-20T07:21:35;10.93;;;8.07;;
11614;SDS011;5863;52.832;4.758;2022-11-20T07:24:02;12.00;;;8.17;;
11614;SDS011;5863;52.832;4.758;2022-11-20T07:26:29;13.63;;;8.83;;
11614;SDS011;5863;52.832;4.758;2022-11-20T07:28:56;13.33;;;9.13;;
11614;SDS011;5863;52.832;4.758;2022-11-20T07:31:22;11.60;;;8.73;;
11614;SDS011;5863;52.832;4.758;2022-11-20T07:33:56;11.90;;;8.70;;
11614;SDS011;5863;52.832;4.758;2022-11-20T07:36:23;11.03;;;8.13;;
11614;SDS011;5863;52.832;4.758;2022-11-20T07:38:50;12.87;;;9.50;;
11614;SDS011;5863;52.832;4.758;2022-11-20T07:41:17;13.33;;;8.97;;
11614;SDS011;5863;52.832;4.758;2022-11-20T07:43:43;12.60;;;9.30;;
11614;SDS011;5863;52.832;4.758;2022-11-20T07:46:10;11.77;;;8.67;;
11614;SDS011;5863;52.832;4.758;2022-11-20T07:48:37;13.10;;;9.47;;
11614;SDS011;5863;52.832;4.758;2022-11-20T07:51:05;13.57;;;8.73;;
11614;SDS011;5863;52.832;4.758;2022-11-20T07:53:32;14.50;;;8.97;;
11614;SDS011;5863;52.832;4.758;2022-11-20T07:55:59;12.67;;;9.23;;
11614;SDS011;5863;52.832;4.758;2022-11-20T07:58:26;13.90;;;9.53;;
11614;SDS011;5863;52.832;4.758;2022-11-20T08:00:55;13.77;;;9.77;;
11614;SDS011;5863;52.832;4.758;2022-11-20T08:03:22;14.17;;;9.27;;
11614;SDS011;5863;52.832;4.758;2022-11-20T08:05:48;15.20;;;9.53;;
11614;SDS011;5863;52.832;4.758;2022-11-20T08:08:16;12.23;;;8.53;;
11614;SDS011;5863;52.832;4.758;2022-11-20T08:10:43;13.00;;;9.23;;
11614;SDS011;5863;52.832;4.758;2022-11-20T08:13:10;12.73;;;9.20;;
11614;SDS011;5863;52.832;4.758;2022-11-20T08:15:54;11.60;;;8.77;;
11614;SDS011;5863;52.832;4.758;2022-11-20T08:18:21;12.17;;;8.93;;
11614;SDS011;5863;52.832;4.758;2022-11-20T08:20:48;12.87;;;9.63;;
11614;SDS011;5863;52.832;4.758;2022-11-20T08:23:14;14.90;;;9.80;;
11614;SDS011;5863;52.832;4.758;2022-11-20T08:25:42;13.63;;;8.97;;
11614;SDS011;5863;52.832;4.758;2022-11-20T08:28:09;14.73;;;8.83;;
11614;SDS011;5863;52.832;4.758;2022-11-20T08:30:36;12.30;;;8.87;;
11614;SDS011;5863;52.832;4.758;2022-11-20T08:33:04;13.30;;;9.50;;
11614;SDS011;5863;52.832;4.758;2022-11-20T08:35:33;12.47;;;9.20;;
11614;SDS011;5863;52.832;4.758;2022-11-20T08:38:13;12.80;;;9.03;;
11614;SDS011;5863;52.832;4.758;2022-11-20T08:40:41;14.20;;;9.17;;
11614;SDS011;5863;52.832;4.758;2022-11-20T08:43:29;14.33;;;9.77;;
11614;SDS011;5863;52.832;4.758;2022-11-20T08:45:56;20.77;;;10.70;;
11614;SDS011;5863;52.832;4.758;2022-11-20T08:48:22;13.70;;;9.33;;
11614;SDS011;5863;52.832;4.758;2022-11-20T08:50:50;14.80;;;9.90;;
11614;SDS011;5863;52.832;4.758;2022-11-20T08:53:17;14.10;;;10.00;;
11614;SDS011;5863;52.832;4.758;2022-11-20T08:55:45;14.63;;;10.00;;
11614;SDS011;5863;52.832;4.758;2022-11-20T08:58:11;14.20;;;10.20;;
11614;SDS011;5863;52.832;4.758;2022-11-20T09:00:38;18.97;;;10.30;;
11614;SDS011;5863;52.832;4.758;2022-11-20T09:03:05;14.93;;;10.93;;
11614;SDS011;5863;52.832;4.758;2022-11-20T09:05:31;15.57;;;10.40;;
11614;SDS011;5863;52.832;4.758;2022-11-20T09:07:58;13.33;;;10.03;;
11614;SDS011;5863;52.832;4.758;2022-11-20T09:10:25;20.17;;;12.27;;
11614;SDS011;5863;52.832;4.758;2022-11-20T09:12:53;16.80;;;11.10;;
11614;SDS011;5863;52.832;4.758;2022-11-20T09:15:21;14.07;;;10.57;;
11614;SDS011;5863;52.832;4.758;2022-11-20T09:17:53;12.93;;;9.67;;
11614;SDS011;5863;52.832;4.758;2022-11-20T09:20:20;17.13;;;9.90;;
11614;SDS011;5863;52.832;4.758;2022-11-20T09:22:47;15.10;;;10.20;;
11614;SDS011;5863;52.832;4.758;2022-11-20T09:25:15;16.80;;;10.47;;
11614;SDS011;5863;52.832;4.758;2022-11-20T09:27:42;13.87;;;10.07;;
11614;SDS011;5863;52.832;4.758;2022-11-20T09:30:13;15.73;;;10.53;;
11614;SDS011;5863;52.832;4.758;2022-11-20T09:32:41;14.80;;;10.17;;
11614;SDS011;5863;52.832;4.758;2022-11-20T09:35:08;14.40;;;9.67;;
11614;SDS011;5863;52.832;4.758;2022-11-20T09:37:36;12.47;;;10.20;;
11614;SDS011;5863;52.832;4.758;2022-11-20T09:40:03;12.90;;;9.40;;
11614;SDS011;5863;52.832;4.758;2022-11-20T09:42:32;15.13;;;9.60;;
11614;SDS011;5863;52.832;4.758;2022-11-20T09:45:14;14.23;;;9.63;;
11614;SDS011;5863;52.832;4.758;2022-11-20T09:47:53;14.40;;;9.50;;
11614;SDS011;5863;52.832;4.758;2022-11-20T09:50:30;12.67;;;9.53;;
11614;SDS011;5863;52.832;4.758;2022-11-20T09:53:04;14.47;;;9.67;;
11614;SDS011;5863;52.832;4.758;2022-11-20T09:55:38;12.03;;;8.57;;
11614;SDS011;5863;52.832;4.758;2022-11-20T09:58:06;13.67;;;9.30;;
11614;SDS011;5863;52.832;4.758;2022-11-20T10:00:40;18.67;;;10.37;;
11614;SDS011;5863;52.832;4.758;2022-11-20T10:03:11;12.07;;;9.00;;
11614;SDS011;5863;52.832;4.758;2022-11-20T10:05:42;13.43;;;9.67;;
11614;SDS011;5863;52.832;4.758;2022-11-20T10:08:14;13.90;;;9.90;;
11614;SDS011;5863;52.832;4.758;2022-11-20T10:10:45;13.97;;;10.07;;
11614;SDS011;5863;52.832;4.758;2022-11-20T10:13:19;15.07;;;9.67;;
11614;SDS011;5863;52.832;4.758;2022-11-20T10:15:58;11.57;;;8.93;;
11614;SDS011;5863;52.832;4.758;2022-11-20T10:18:37;11.77;;;8.87;;
11614;SDS011;5863;52.832;4.758;2022-11-20T10:21:13;10.00;;;8.10;;
11614;SDS011;5863;52.832;4.758;2022-11-20T10:23:51;10.37;;;7.97;;
11614;SDS011;5863;52.832;4.758;2022-11-20T10:26:51;13.03;;;8.10;;
11614;SDS011;5863;52.832;4.758;2022-11-20T10:29:27;10.97;;;8.20;;
11614;SDS011;5863;52.832;4.758;2022-11-20T10:32:01;11.40;;;8.67;;
11614;SDS011;5863;52.832;4.758;2022-11-20T10:34:31;12.07;;;8.57;;
11614;SDS011;5863;52.832;4.758;2022-11-20T10:37:05;10.63;;;8.10;;
11614;SDS011;5863;52.832;4.758;2022-11-20T10:39:36;10.23;;;8.27;;
11614;SDS011;5863;52.832;4.758;2022-11-20T10:42:08;10.47;;;8.50;;
11614;SDS011;5863;52.832;4.758;2022-11-20T10:44:42;10.20;;;7.83;;
11614;SDS011;5863;52.832;4.758;2022-11-20T10:47:29;10.60;;;8.47;;
11614;SDS011;5863;52.832;4.758;2022-11-20T10:49:57;11.87;;;8.63;;
11614;SDS011;5863;52.832;4.758;2022-11-20T10:52:30;13.90;;;8.40;;
11614;SDS011;5863;52.832;4.758;2022-11-20T10:55:06;11.10;;;8.53;;
11614;SDS011;5863;52.832;4.758;2022-11-20T10:57:46;10.80;;;8.90;;
11614;SDS011;5863;52.832;4.758;2022-11-20T11:00:20;11.93;;;9.20;;
11614;SDS011;5863;52.832;4.758;2022-11-20T11:02:49;13.50;;;9.87;;
11614;SDS011;5863;52.832;4.758;2022-11-20T11:05:18;12.10;;;8.80;;
11614;SDS011;5863;52.832;4.758;2022-11-20T11:07:52;12.00;;;9.10;;
11614;SDS011;5863;52.832;4.758;2022-11-20T11:10:22;13.37;;;9.87;;
11614;SDS011;5863;52.832;4.758;2022-11-20T11:12:54;11.67;;;9.80;;
11614;SDS011;5863;52.832;4.758;2022-11-20T11:15:26;14.43;;;10.30;;
11614;SDS011;5863;52.832;4.758;2022-11-20T11:17:56;14.80;;;10.50;;
11614;SDS011;5863;52.832;4.758;2022-11-20T11:20:23;15.20;;;10.30;;
11614;SDS011;5863;52.832;4.758;2022-11-20T11:22:52;15.13;;;10.40;;
11614;SDS011;5863;52.832;4.758;2022-11-20T11:25:25;14.03;;;9.97;;
11614;SDS011;5863;52.832;4.758;2022-11-20T11:27:54;14.40;;;10.07;;
11614;SDS011;5863;52.832;4.758;2022-11-20T11:30:22;14.27;;;10.67;;
11614;SDS011;5863;52.832;4.758;2022-11-20T11:33:03;15.37;;;10.23;;
11614;SDS011;5863;52.832;4.758;2022-11-20T11:35:32;15.73;;;11.13;;
11614;SDS011;5863;52.832;4.758;2022-11-20T11:38:03;14.57;;;10.70;;
11614;SDS011;5863;52.832;4.758;2022-11-20T11:40:32;14.20;;;11.13;;
11614;SDS011;5863;52.832;4.758;2022-11-20T11:43:04;16.03;;;11.20;;
11614;SDS011;5863;52.832;4.758;2022-11-20T11:45:53;14.30;;;10.80;;
11614;SDS011;5863;52.832;4.758;2022-11-20T11:48:22;13.97;;;10.73;;
11614;SDS011;5863;52.832;4.758;2022-11-20T11:50:48;15.77;;;11.70;;
11614;SDS011;5863;52.832;4.758;2022-11-20T11:53:17;17.13;;;12.13;;
11614;SDS011;5863;52.832;4.758;2022-11-20T11:55:45;17.53;;;11.70;;
11614;SDS011;5863;52.832;4.758;2022-11-20T11:58:23;15.70;;;12.03;;
11614;SDS011;5863;52.832;4.758;2022-11-20T12:01:07;16.23;;;11.90;;
11614;SDS011;5863;52.832;4.758;2022-11-20T12:03:41;14.60;;;11.43;;
11614;SDS011;5863;52.832;4.758;2022-11-20T12:06:11;14.57;;;11.90;;
11614;SDS011;5863;52.832;4.758;2022-11-20T12:08:41;16.77;;;11.20;;
11614;SDS011;5863;52.832;4.758;2022-11-20T12:11:13;14.70;;;11.13;;
11614;SDS011;5863;52.832;4.758;2022-11-20T12:13:48;14.67;;;11.13;;
11614;SDS011;5863;52.832;4.758;2022-11-20T12:16:19;14.27;;;11.30;;
11614;SDS011;5863;52.832;4.758;2022-11-20T12:18:48;13.67;;;10.10;;
11614;SDS011;5863;52.832;4.758;2022-11-20T12:21:25;15.20;;;11.10;;
11614;SDS011;5863;52.832;4.758;2022-11-20T12:24:13;13.63;;;10.63;;
11614;SDS011;5863;52.832;4.758;2022-11-20T12:27:01;12.03;;;9.87;;
11614;SDS011;5863;52.832;4.758;2022-11-20T12:29:43;16.33;;;11.37;;
11614;SDS011;5863;52.832;4.758;2022-11-20T12:32:39;15.67;;;11.43;;
11614;SDS011;5863;52.832;4.758;2022-11-20T12:35:31;15.10;;;11.33;;
11614;SDS011;5863;52.832;4.758;2022-11-20T12:38:14;15.40;;;12.00;;
11614;SDS011;5863;52.832;4.758;2022-11-20T12:41:21;15.97;;;12.00;;
11614;SDS011;5863;52.832;4.758;2022-11-20T12:44:16;17.67;;;12.63;;
11614;SDS011;5863;52.832;4.758;2022-11-20T12:47:13;19.97;;;14.20;;
11614;SDS011;5863;52.832;4.758;2022-11-20T12:49:47;19.13;;;14.20;;
11614;SDS011;5863;52.832;4.758;2022-11-20T12:52:30;19.63;;;14.07;;
11614;SDS011;5863;52.832;4.758;2022-11-20T12:57:53;19.60;;;14.20;;
11614;SDS011;5863;52.832;4.758;2022-11-20T13:00:24;18.57;;;13.87;;
11614;SDS011;5863;52.832;4.758;2022-11-20T13:02:58;18.33;;;14.23;;
11614;SDS011;5863;52.832;4.758;2022-11-20T13:05:36;20.33;;;15.00;;
11614;SDS011;5863;52.832;4.758;2022-11-20T13:08:13;20.33;;;14.63;;
11614;SDS011;5863;52.832;4.758;2022-11-20T13:10:49;21.90;;;14.70;;
11614;SDS011;5863;52.832;4.758;2022-11-20T13:13:22;20.07;;;14.63;;
11614;SDS011;5863;52.832;4.758;2022-11-20T13:15:55;18.87;;;14.40;;
11614;SDS011;5863;52.832;4.758;2022-11-20T13:18:28;20.23;;;14.47;;
11614;SDS011;5863;52.832;4.758;2022-11-20T13:21:12;20.60;;;13.93;;
11614;SDS011;5863;52.832;4.758;2022-11-20T13:23:45;19.47;;;14.23;;
11614;SDS011;5863;52.832;4.758;2022-11-20T13:26:16;21.57;;;15.37;;
11614;SDS011;5863;52.832;4.758;2022-11-20T13:28:46;20.73;;;15.20;;
11614;SDS011;5863;52.832;4.758;2022-11-20T13:31:28;19.47;;;14.63;;
11614;SDS011;5863;52.832;4.758;2022-11-20T13:33:57;22.00;;;15.53;;
11614;SDS011;5863;52.832;4.758;2022-11-20T13:36:27;22.70;;;15.63;;
11614;SDS011;5863;52.832;4.758;2022-11-20T13:38:58;23.60;;;16.17;;
11614;SDS011;5863;52.832;4.758;2022-11-20T13:41:26;23.73;;;17.07;;
11614;SDS011;5863;52.832;4.758;2022-11-20T13:43:57;24.90;;;16.80;;
11614;SDS011;5863;52.832;4.758;2022-11-20T13:46:35;25.37;;;16.57;;
11614;SDS011;5863;52.832;4.758;2022-11-20T13:49:06;27.07;;;18.07;;
11614;SDS011;5863;52.832;4.758;2022-11-20T13:51:37;28.13;;;18.83;;
11614;SDS011;5863;52.832;4.758;2022-11-20T13:57:37;25.13;;;17.57;;
11614;SDS011;5863;52.832;4.758;2022-11-20T14:00:20;24.10;;;17.07;;
11614;SDS011;5863;52.832;4.758;2022-11-20T14:02:51;27.47;;;18.07;;
11614;SDS011;5863;52.832;4.758;2022-11-20T14:05:27;25.33;;;17.07;;
11614;SDS011;5863;52.832;4.758;2022-11-20T14:07:56;28.50;;;18.43;;
11614;SDS011;5863;52.832;4.758;2022-11-20T14:10:25;31.10;;;18.10;;
11614;SDS011;5863;52.832;4.758;2022-11-20T14:12:54;26.63;;;17.83;;
11614;SDS011;5863;52.832;4.758;2022-11-20T14:15:25;30.60;;;19.73;;
11614;SDS011;5863;52.832;4.758;2022-11-20T14:17:54;30.17;;;19.30;;
11614;SDS011;5863;52.832;4.758;2022-11-20T14:20:23;27.10;;;18.63;;
11614;SDS011;5863;52.832;4.758;2022-11-20T14:22:52;28.90;;;18.50;;
11614;SDS011;5863;52.832;4.758;2022-11-20T14:25:20;27.13;;;19.00;;
11614;SDS011;5863;52.832;4.758;2022-11-20T14:27:53;30.40;;;18.83;;
11614;SDS011;5863;52.832;4.758;2022-11-20T14:30:23;27.77;;;19.20;;
11614;SDS011;5863;52.832;4.758;2022-11-20T14:32:51;29.03;;;18.87;;
11614;SDS011;5863;52.832;4.758;2022-11-20T14:35:23;26.57;;;18.70;;
11614;SDS011;5863;52.832;4.758;2022-11-20T14:37:52;26.80;;;17.60;;
11614;SDS011;5863;52.832;4.758;2022-11-20T14:40:24;28.77;;;18.83;;
11614;SDS011;5863;52.832;4.758;2022-11-20T14:42:54;27.40;;;18.13;;
11614;SDS011;5863;52.832;4.758;2022-11-20T14:45:21;28.70;;;18.57;;
11614;SDS011;5863;52.832;4.758;2022-11-20T14:47:50;25.17;;;17.30;;
11614;SDS011;5863;52.832;4.758;2022-11-20T14:50:20;28.50;;;18.07;;
11614;SDS011;5863;52.832;4.758;2022-11-20T14:52:50;25.90;;;17.77;;
11614;SDS011;5863;52.832;4.758;2022-11-20T14:55:28;25.47;;;17.73;;
11614;SDS011;5863;52.832;4.758;2022-11-20T14:57:57;27.47;;;18.23;;
11614;SDS011;5863;52.832;4.758;2022-11-20T15:00:26;24.63;;;17.00;;
11614;SDS011;5863;52.832;4.758;2022-11-20T15:02:53;27.47;;;18.53;;
11614;SDS011;5863;52.832;4.758;2022-11-20T15:05:21;25.93;;;18.20;;
11614;SDS011;5863;52.832;4.758;2022-11-20T15:07:50;25.63;;;17.73;;